Time;durP1;ratioP1;P1;durP2;ratioP2;P2;SDS_P1;SDS_P2;PMS_P1;PMS_P2;Temp;Humidity;BMP_temperature;BMP_pressure;BME280_temperature;BME280_humidity;BME280_pressure;Samples;Min_cycle;Max_cycle;Signal;HPM_P1;HPM_P2
2021/05/13 00:00:03;;;;;;;63.70;38.70;;;8.90;99.90;;;;;;5027111;28;20111;-75
2021/05/13 00:02:39;;;;;;;63.45;39.40;;;8.90;99.90;;;;;;5045431;28;20133;-75
2021/05/13 00:05:07;;;;;;;64.95;39.63;;;8.70;99.90;;;;;;5045776;28;20139;-74
2021/05/13 00:07:33;;;;;;;64.88;38.03;;;8.60;99.90;;;;;;5046024;28;20064;-74
2021/05/13 00:10:01;;;;;;;64.20;38.67;;;8.60;99.90;;;;;;5014250;28;20698;-75
2021/05/13 00:13:10;;;;;;;65.63;37.90;;;8.60;99.90;;;;;;5029906;28;20577;-74
2021/05/13 00:15:34;;;;;;;61.72;37.25;;;8.60;99.90;;;;;;5037481;28;20060;-74
2021/05/13 00:18:01;;;;;;;62.25;37.95;;;8.50;99.90;;;;;;5045660;28;20092;-75
2021/05/13 00:20:34;;;;;;;56.78;34.28;;;8.40;99.90;;;;;;5029596;28;20489;-75
2021/05/13 00:23:02;;;;;;;56.58;33.10;;;8.50;99.90;;;;;;5047044;28;20048;-75
2021/05/13 00:25:29;;;;;;;54.38;33.42;;;8.40;99.90;;;;;;5046620;28;20053;-75
2021/05/13 00:27:56;;;;;;;55.97;35.45;;;8.40;99.90;;;;;;5030330;28;20182;-75
2021/05/13 00:30:24;;;;;;;62.70;37.08;;;8.50;99.90;;;;;;5029502;28;20068;-75
2021/05/13 00:32:52;;;;;;;60.42;38.45;;;8.70;99.90;;;;;;5045478;28;20452;-75
2021/05/13 00:35:20;;;;;;;60.75;36.85;;;8.60;99.90;;;;;;5046304;28;20087;-75
2021/05/13 00:37:47;;;;;;;67.18;39.47;;;8.60;99.90;;;;;;5064730;28;20044;-75
2021/05/13 00:40:17;;;;;;;71.43;41.13;;;8.60;99.90;;;;;;5046096;28;20639;-74
2021/05/13 00:42:44;;;;;;;77.10;40.55;;;8.60;99.90;;;;;;5047505;28;20617;-74
2021/05/13 00:45:14;;;;;;;62.53;37.15;;;8.50;99.90;;;;;;5016582;28;20260;-75
2021/05/13 00:48:01;;;;;;;61.72;35.38;;;8.50;99.90;;;;;;5068692;28;20048;-75
2021/05/13 00:50:30;;;;;;;57.45;35.03;;;8.40;99.90;;;;;;5049979;28;20135;-74
2021/05/13 00:52:58;;;;;;;59.08;34.75;;;8.40;99.90;;;;;;5050060;28;20064;-75
2021/05/13 00:55:25;;;;;;;61.47;36.00;;;8.40;99.90;;;;;;5017506;28;20524;-74
2021/05/13 00:57:54;;;;;;;64.18;37.70;;;8.60;99.90;;;;;;5050462;28;20080;-75
2021/05/13 01:03:01;;;;;;;61.38;35.50;;;8.40;99.90;;;;;;5050452;28;20048;-74
2021/05/13 01:05:29;;;;;;;52.58;33.95;;;8.40;99.90;;;;;;5048308;28;20086;-74
2021/05/13 01:07:57;;;;;;;61.35;34.78;;;8.60;99.90;;;;;;5032641;28;20040;-74
2021/05/13 01:10:25;;;;;;;59.78;35.80;;;8.70;99.90;;;;;;5049564;28;20084;-75
2021/05/13 01:12:54;;;;;;;64.50;36.17;;;8.70;99.90;;;;;;5032225;28;20230;-74
2021/05/13 01:15:29;;;;;;;60.80;37.80;;;8.60;99.90;;;;;;5048546;28;20344;-74
2021/05/13 01:18:29;;;;;;;70.83;39.70;;;8.60;99.90;;;;;;5065671;28;20048;-75
2021/05/13 01:20:50;;;;;;;65.07;37.40;;;8.60;99.90;;;;;;5047051;28;20041;-76
2021/05/13 01:23:18;;;;;;;71.05;38.75;;;8.50;99.90;;;;;;5032734;28;20143;-74
2021/05/13 01:25:55;;;;;;;69.82;37.38;;;8.40;99.90;;;;;;5015134;28;20280;-74
2021/05/13 01:28:27;;;;;;;77.43;43.17;;;8.30;99.90;;;;;;5042700;28;20043;-74
2021/05/13 01:30:55;;;;;;;75.60;43.53;;;8.40;99.90;;;;;;5048613;28;20330;-75
2021/05/13 01:33:25;;;;;;;78.75;44.75;;;8.50;99.90;;;;;;5030790;28;20089;-75
2021/05/13 01:35:53;;;;;;;83.05;46.70;;;8.60;99.90;;;;;;5022358;28;20048;-74
2021/05/13 01:38:22;;;;;;;84.03;47.80;;;8.70;99.90;;;;;;5035035;28;20135;-75
2021/05/13 01:41:00;;;;;;;91.00;51.15;;;8.70;99.90;;;;;;5063763;28;20052;-74
2021/05/13 01:43:30;;;;;;;92.95;52.95;;;8.90;99.90;;;;;;5030853;28;20037;-74
2021/05/13 01:45:59;;;;;;;105.60;53.75;;;9.00;99.90;;;;;;5062905;28;20144;-74
2021/05/13 01:48:30;;;;;;;106.43;57.53;;;9.10;99.90;;;;;;5031312;28;20044;-75
2021/05/13 01:50:58;;;;;;;104.68;56.80;;;9.10;99.90;;;;;;5025008;28;20045;-74
2021/05/13 01:53:25;;;;;;;110.82;55.80;;;9.00;99.90;;;;;;5031936;28;20098;-75
2021/05/13 01:55:52;;;;;;;108.53;55.22;;;9.00;99.90;;;;;;5030134;28;20435;-75
2021/05/13 01:58:19;;;;;;;108.40;54.85;;;9.00;99.90;;;;;;5066408;28;20113;-74
2021/05/13 02:00:46;;;;;;;100.75;52.45;;;9.00;99.90;;;;;;5014569;28;20075;-74
2021/05/13 02:03:14;;;;;;;76.75;44.55;;;9.00;99.90;;;;;;5065394;28;20099;-76
2021/05/13 02:05:41;;;;;;;70.63;42.20;;;9.00;99.90;;;;;;5046823;28;20065;-74
2021/05/13 02:08:08;;;;;;;73.82;43.85;;;8.90;99.90;;;;;;5047311;28;20114;-75
2021/05/13 02:10:35;;;;;;;93.75;50.47;;;8.90;99.90;;;;;;5017642;28;613212;-75
2021/05/13 02:13:02;;;;;;;82.90;45.58;;;8.90;99.90;;;;;;5029092;28;20041;-75
2021/05/13 02:15:29;;;;;;;74.25;41.10;;;8.90;99.90;;;;;;5028272;28;20049;-75
2021/05/13 02:17:56;;;;;;;72.93;41.17;;;8.90;99.90;;;;;;4995501;28;20373;-76
2021/05/13 02:20:25;;;;;;;71.05;41.55;;;8.80;99.90;;;;;;5042885;28;20140;-75
2021/05/13 02:22:54;;;;;;;63.97;37.58;;;8.80;99.90;;;;;;5032728;28;20515;-74
2021/05/13 02:25:21;;;;;;;72.13;39.95;;;8.80;99.90;;;;;;5047566;28;20080;-74
2021/05/13 02:27:48;;;;;;;61.53;38.17;;;8.80;99.90;;;;;;5049184;28;20086;-74
2021/05/13 02:30:15;;;;;;;65.97;41.00;;;8.80;99.90;;;;;;5047361;28;20134;-76
2021/05/13 02:32:42;;;;;;;71.20;42.42;;;8.70;99.90;;;;;;5030545;28;20060;-74
2021/05/13 02:35:12;;;;;;;79.47;43.60;;;8.70;99.90;;;;;;5065115;28;20077;-77
2021/05/13 02:37:40;;;;;;;78.95;46.85;;;8.80;99.90;;;;;;5031432;28;20087;-76
2021/05/13 02:40:09;;;;;;;88.07;47.13;;;8.80;99.90;;;;;;5031087;28;20071;-76
2021/05/13 02:42:36;;;;;;;87.00;48.03;;;9.00;99.90;;;;;;5030489;28;20036;-76
2021/05/13 02:45:05;;;;;;;84.18;48.60;;;9.10;99.90;;;;;;5031197;28;20044;-76
2021/05/13 02:47:32;;;;;;;96.10;52.05;;;9.10;99.90;;;;;;5031580;28;20044;-76
2021/05/13 02:49:59;;;;;;;83.47;46.00;;;9.10;99.90;;;;;;5066286;28;20049;-74
2021/05/13 02:52:26;;;;;;;75.47;42.15;;;9.00;99.90;;;;;;5047815;28;20051;-76
2021/05/13 02:54:53;;;;;;;71.68;38.88;;;8.90;99.90;;;;;;5047948;28;20106;-74
2021/05/13 02:57:20;;;;;;;71.38;40.13;;;8.90;99.90;;;;;;5047200;28;20106;-74
2021/05/13 02:59:49;;;;;;;67.53;39.55;;;8.80;99.90;;;;;;5030696;28;20240;-75
2021/05/13 03:02:16;;;;;;;69.82;41.30;;;8.90;99.90;;;;;;5030525;28;20064;-76
2021/05/13 03:04:44;;;;;;;66.03;39.72;;;8.90;99.90;;;;;;5064155;28;20063;-74
2021/05/13 03:07:11;;;;;;;75.35;44.00;;;9.00;99.90;;;;;;5047047;28;20060;-74
2021/05/13 03:09:45;;;;;;;78.43;43.88;;;9.00;99.90;;;;;;5047432;28;20040;-76
2021/05/13 03:12:13;;;;;;;68.55;41.55;;;9.20;99.90;;;;;;5029260;28;20045;-74
2021/05/13 03:14:40;;;;;;;62.85;40.85;;;9.10;99.90;;;;;;5031055;28;20052;-74
2021/05/13 03:17:07;;;;;;;64.22;38.15;;;9.00;99.90;;;;;;5030741;28;20497;-74
2021/05/13 03:19:42;;;;;;;64.07;40.30;;;9.00;99.90;;;;;;5047673;28;20362;-75
2021/05/13 03:22:12;;;;;;;61.95;38.00;;;9.00;99.90;;;;;;5047246;28;20132;-74
2021/05/13 03:24:48;;;;;;;61.03;37.60;;;9.00;99.90;;;;;;5030928;28;20054;-74
2021/05/13 03:29:56;;;;;;;72.15;42.70;;;9.00;99.90;;;;;;5030383;28;20456;-74
2021/05/13 03:32:23;;;;;;;70.28;42.85;;;9.00;99.90;;;;;;5064092;28;20070;-75
2021/05/13 03:34:50;;;;;;;74.93;42.03;;;9.10;99.90;;;;;;5030540;28;20577;-75
2021/05/13 03:37:20;;;;;;;74.32;44.05;;;9.20;99.90;;;;;;5027930;28;20098;-74
2021/05/13 03:39:47;;;;;;;77.55;43.35;;;9.30;99.90;;;;;;5018370;28;20110;-74
2021/05/13 03:42:13;;;;;;;84.30;47.20;;;9.30;99.90;;;;;;5042024;28;20076;-75
2021/05/13 03:44:44;;;;;;;80.28;45.50;;;9.40;99.90;;;;;;5045920;28;20078;-75
2021/05/13 03:47:10;;;;;;;78.38;45.00;;;9.40;99.90;;;;;;5047096;28;20152;-75
2021/05/13 03:49:39;;;;;;;70.85;44.17;;;9.40;99.90;;;;;;5011584;28;20604;-75
2021/05/13 03:52:06;;;;;;;89.15;46.40;;;9.40;99.90;;;;;;5010462;28;20128;-75
2021/05/13 03:54:33;;;;;;;83.15;44.65;;;9.40;99.90;;;;;;5011015;28;20037;-75
2021/05/13 03:57:00;;;;;;;83.95;45.33;;;9.20;99.90;;;;;;5044497;28;20049;-74
2021/05/13 03:59:33;;;;;;;93.72;48.75;;;9.10;99.90;;;;;;5045459;28;20155;-74
2021/05/13 04:04:45;;;;;;;;;;;9.10;99.90;;;;;;5047525;28;20593;-75
2021/05/13 04:07:12;;;;;;;73.30;40.10;;;9.00;99.90;;;;;;5047431;28;19971;-75
2021/05/13 04:09:39;;;;;;;80.32;41.72;;;9.00;99.90;;;;;;5014374;28;20075;-75
2021/05/13 04:12:06;;;;;;;72.50;40.15;;;9.00;99.90;;;;;;5045369;28;20532;-74
2021/05/13 04:14:36;;;;;;;83.45;45.10;;;9.10;99.90;;;;;;5048407;28;20061;-74
2021/05/13 04:17:07;;;;;;;77.75;42.95;;;9.10;99.90;;;;;;5030954;28;20044;-75
2021/05/13 04:19:34;;;;;;;81.45;44.63;;;9.20;99.90;;;;;;5031530;28;20093;-75
2021/05/13 04:22:02;;;;;;;84.22;44.80;;;9.20;99.90;;;;;;5031032;28;20048;-74
2021/05/13 04:24:30;;;;;;;91.40;46.67;;;9.30;99.90;;;;;;5048586;28;20087;-75
2021/05/13 04:26:58;;;;;;;76.80;42.85;;;9.10;99.90;;;;;;5054151;28;20679;-75
2021/05/13 04:29:25;;;;;;;83.97;45.33;;;9.20;99.90;;;;;;5061329;28;20113;-73
2021/05/13 04:31:53;;;;;;;86.22;44.67;;;9.40;99.90;;;;;;5031318;28;20056;-73
2021/05/13 04:34:20;;;;;;;88.82;47.08;;;9.40;99.90;;;;;;5066263;28;20059;-73
2021/05/13 04:36:47;;;;;;;87.05;46.60;;;9.40;99.90;;;;;;5027381;28;20051;-73
2021/05/13 04:39:14;;;;;;;78.65;43.55;;;9.30;99.90;;;;;;5058735;28;20397;-73
2021/05/13 04:41:41;;;;;;;85.15;46.75;;;9.20;99.90;;;;;;5044835;28;20052;-74
2021/05/13 04:44:08;;;;;;;76.63;45.03;;;9.20;99.90;;;;;;5048939;28;20486;-74
2021/05/13 04:46:36;;;;;;;75.70;44.20;;;9.20;99.90;;;;;;5027404;28;20090;-74
2021/05/13 04:51:34;;;;;;;75.70;41.83;;;9.40;99.90;;;;;;5052915;28;20036;-75
2021/05/13 04:54:03;;;;;;;62.67;40.03;;;9.50;99.90;;;;;;5018653;28;20144;-75
2021/05/13 04:56:31;;;;;;;65.18;38.13;;;9.60;99.90;;;;;;5047575;28;20193;-75
2021/05/13 04:58:58;;;;;;;61.55;38.85;;;9.80;99.90;;;;;;5031637;28;20076;-74
2021/05/13 05:01:26;;;;;;;65.63;38.95;;;9.90;99.90;;;;;;5055466;28;20071;-75
2021/05/13 05:03:53;;;;;;;63.80;40.75;;;9.90;99.90;;;;;;5053870;28;20064;-75
2021/05/13 05:06:21;;;;;;;64.25;40.58;;;10.00;99.90;;;;;;5029545;28;20071;-74
2021/05/13 05:08:48;;;;;;;62.08;38.45;;;10.20;99.90;;;;;;5075203;28;20134;-74
2021/05/13 05:11:16;;;;;;;65.07;40.47;;;10.20;99.90;;;;;;5028404;28;20159;-74
2021/05/13 05:13:43;;;;;;;60.22;37.75;;;10.20;99.90;;;;;;5064768;28;20075;-74
2021/05/13 05:16:11;;;;;;;58.97;38.63;;;10.30;99.90;;;;;;5039489;28;20076;-74
2021/05/13 05:18:38;;;;;;;57.80;36.72;;;10.50;99.90;;;;;;5033400;28;20158;-74
2021/05/13 05:21:05;;;;;;;51.17;34.45;;;10.50;99.90;;;;;;5067453;28;20058;-75
2021/05/13 05:23:32;;;;;;;46.88;34.83;;;10.40;99.90;;;;;;5064543;28;20060;-75
2021/05/13 05:26:01;;;;;;;52.33;36.25;;;10.40;99.90;;;;;;5050554;28;20075;-74
2021/05/13 05:28:32;;;;;;;49.33;34.65;;;10.40;99.90;;;;;;5036967;28;20212;-74
2021/05/13 05:31:00;;;;;;;59.05;35.50;;;10.40;99.90;;;;;;5034195;28;20048;-75
2021/05/13 05:33:27;;;;;;;50.58;33.53;;;10.60;99.90;;;;;;5050377;28;20148;-74
2021/05/13 05:35:55;;;;;;;50.38;33.55;;;10.70;99.90;;;;;;5016635;28;20052;-75
2021/05/13 05:38:22;;;;;;;50.28;35.20;;;10.60;99.90;;;;;;5049471;28;20098;-75
2021/05/13 05:40:49;;;;;;;53.53;35.67;;;10.70;99.90;;;;;;5032427;28;20040;-75
2021/05/13 05:43:16;;;;;;;48.80;35.70;;;10.70;99.90;;;;;;5033420;28;20189;-75
2021/05/13 05:45:43;;;;;;;49.55;33.70;;;10.70;99.90;;;;;;5048650;28;20071;-75
2021/05/13 05:48:11;;;;;;;49.10;34.75;;;10.70;99.90;;;;;;5049427;28;20294;-75
2021/05/13 05:50:40;;;;;;;54.05;35.42;;;10.80;99.90;;;;;;5015592;28;20064;-75
2021/05/13 05:53:08;;;;;;;42.08;32.10;;;10.90;99.90;;;;;;5048710;28;20110;-75
2021/05/13 05:55:36;;;;;;;37.95;28.80;;;10.90;99.90;;;;;;5030673;28;20142;-75
2021/05/13 05:58:03;;;;;;;36.90;28.80;;;11.10;99.90;;;;;;5031139;28;20548;-75
2021/05/13 06:00:30;;;;;;;37.53;29.58;;;11.20;99.90;;;;;;5026869;28;20044;-74
2021/05/13 06:02:58;;;;;;;38.85;30.00;;;11.40;99.90;;;;;;5065276;28;20048;-75
2021/05/13 06:05:27;;;;;;;38.97;29.63;;;11.60;99.90;;;;;;5047351;28;20574;-74
2021/05/13 06:07:55;;;;;;;38.80;29.63;;;11.90;99.90;;;;;;5047196;28;20479;-75
2021/05/13 06:10:23;;;;;;;34.22;27.05;;;12.10;99.90;;;;;;5030808;28;20040;-75
2021/05/13 06:12:52;;;;;;;36.15;26.73;;;12.30;99.90;;;;;;5046795;28;20040;-75
2021/05/13 06:15:21;;;;;;;30.70;25.27;;;12.20;99.90;;;;;;5013844;28;20444;-75
2021/05/13 06:17:49;;;;;;;27.38;24.15;;;12.50;99.90;;;;;;5022892;28;20394;-75
2021/05/13 06:20:25;;;;;;;30.98;23.98;;;12.80;99.90;;;;;;5028458;28;20052;-75
2021/05/13 06:22:53;;;;;;;33.58;24.42;;;13.00;99.90;;;;;;5012983;28;20052;-75
2021/05/13 06:25:21;;;;;;;26.50;23.13;;;12.90;99.90;;;;;;5011441;28;20143;-75
2021/05/13 06:27:49;;;;;;;30.65;24.33;;;13.00;99.90;;;;;;5012685;28;20437;-75
2021/05/13 06:30:17;;;;;;;28.38;23.85;;;13.10;99.90;;;;;;5047649;28;20041;-75
2021/05/13 06:32:45;;;;;;;28.20;22.02;;;13.30;99.90;;;;;;5031409;28;20075;-75
2021/05/13 06:35:15;;;;;;;28.33;24.98;;;13.70;99.90;;;;;;5031150;28;20072;-75
2021/05/13 06:37:42;;;;;;;32.88;25.08;;;13.80;99.90;;;;;;5048406;28;20053;-75
2021/05/13 06:40:10;;;;;;;26.42;22.40;;;14.10;99.90;;;;;;5015772;28;20056;-74
2021/05/13 06:42:43;;;;;;;26.42;23.75;;;14.50;99.90;;;;;;5014206;28;20505;-75
2021/05/13 06:45:12;;;;;;;30.08;25.80;;;14.60;99.90;;;;;;5039691;28;20078;-76
2021/05/13 06:47:39;;;;;;;28.13;22.95;;;14.70;99.90;;;;;;5030671;28;20592;-76
2021/05/13 06:50:07;;;;;;;34.17;22.75;;;14.80;99.90;;;;;;5048369;28;20056;-76
2021/05/13 06:52:35;;;;;;;25.10;22.55;;;14.80;99.90;;;;;;5048267;28;20036;-75
2021/05/13 06:55:04;;;;;;;24.77;22.20;;;15.20;99.90;;;;;;5048206;28;20040;-76
2021/05/13 06:57:30;;;;;;;26.02;23.27;;;15.40;99.90;;;;;;5047576;28;20072;-75
2021/05/13 06:59:57;;;;;;;24.25;21.98;;;15.60;99.90;;;;;;5031563;28;20425;-75
2021/05/13 07:02:26;;;;;;;23.42;21.45;;;15.60;99.90;;;;;;5014135;28;20049;-75
2021/05/13 07:04:53;;;;;;;25.45;22.85;;;15.80;99.90;;;;;;5047920;28;20052;-75
2021/05/13 07:07:27;;;;;;;24.73;22.48;;;15.80;99.90;;;;;;5047925;28;20038;-75
2021/05/13 07:09:54;;;;;;;26.25;23.45;;;15.80;99.90;;;;;;5037537;28;20059;-74
2021/05/13 07:12:21;;;;;;;24.50;22.15;;;15.60;99.90;;;;;;5040337;28;20533;-75
2021/05/13 07:14:48;;;;;;;24.17;21.85;;;15.50;99.90;;;;;;5008279;28;20579;-75
2021/05/13 07:17:15;;;;;;;23.02;20.75;;;15.60;99.90;;;;;;5026776;28;20109;-74
2021/05/13 07:19:42;;;;;;;21.45;19.50;;;15.80;99.90;;;;;;5031607;28;20135;-76
2021/05/13 07:22:08;;;;;;;21.63;19.48;;;16.00;99.90;;;;;;5031340;28;20044;-76
2021/05/13 07:24:36;;;;;;;22.30;19.65;;;16.20;99.90;;;;;;5030440;28;20079;-76
2021/05/13 07:27:09;;;;;;;24.15;20.30;;;16.30;99.90;;;;;;5047421;28;20045;-76
2021/05/13 07:29:37;;;;;;;21.30;18.95;;;16.40;99.90;;;;;;5049147;28;20049;-76
2021/05/13 07:32:04;;;;;;;20.65;18.63;;;16.40;99.90;;;;;;5030402;28;20094;-77
2021/05/13 07:34:32;;;;;;;21.10;19.35;;;16.60;99.90;;;;;;5047910;28;20230;-77
2021/05/13 07:36:59;;;;;;;21.23;19.40;;;16.80;99.90;;;;;;5031466;28;20041;-77
2021/05/13 07:39:26;;;;;;;21.83;19.85;;;16.80;99.90;;;;;;5046761;28;20074;-76
2021/05/13 07:41:53;;;;;;;22.27;20.05;;;16.90;99.90;;;;;;5022798;28;20052;-76
2021/05/13 07:44:22;;;;;;;20.98;18.90;;;17.20;99.90;;;;;;5011845;28;20055;-76
2021/05/13 07:46:49;;;;;;;21.50;19.77;;;16.90;99.90;;;;;;5056030;28;20044;-76
2021/05/13 07:49:19;;;;;;;20.30;18.40;;;16.90;99.90;;;;;;5024300;28;20040;-76
2021/05/13 07:51:46;;;;;;;19.90;18.10;;;16.70;99.90;;;;;;5031389;28;20508;-76
2021/05/13 07:54:13;;;;;;;18.85;17.15;;;16.60;99.90;;;;;;5046117;28;20076;-76
2021/05/13 07:56:40;;;;;;;18.95;17.05;;;16.60;99.90;;;;;;5063899;28;20143;-76
2021/05/13 07:59:07;;;;;;;17.95;16.38;;;16.50;99.90;;;;;;5025703;28;20160;-76
2021/05/13 08:01:34;;;;;;;15.55;14.27;;;16.80;99.90;;;;;;5042170;28;20101;-76
2021/05/13 08:04:01;;;;;;;18.05;16.50;;;16.90;99.90;;;;;;5048493;28;20515;-76
2021/05/13 08:06:29;;;;;;;16.58;15.13;;;16.40;99.90;;;;;;5047018;28;20106;-76
2021/05/13 08:08:56;;;;;;;19.67;17.80;;;16.10;99.90;;;;;;5027571;28;20049;-75
2021/05/13 08:11:23;;;;;;;19.10;17.50;;;15.80;99.90;;;;;;5030138;28;20045;-76
2021/05/13 08:13:50;;;;;;;20.58;18.90;;;15.80;99.90;;;;;;5030820;28;20486;-76
2021/05/13 08:16:17;;;;;;;20.85;18.75;;;16.20;99.90;;;;;;5046393;28;20284;-76
2021/05/13 08:18:45;;;;;;;21.33;19.50;;;16.40;99.90;;;;;;5015149;28;20050;-76
2021/05/13 08:21:13;;;;;;;20.10;18.50;;;16.80;99.90;;;;;;5032333;28;20079;-75
2021/05/13 08:23:40;;;;;;;21.40;19.50;;;16.90;99.90;;;;;;5015982;28;20117;-76
2021/05/13 08:26:07;;;;;;;20.63;18.83;;;17.20;99.90;;;;;;5030256;28;20471;-75
2021/05/13 08:28:34;;;;;;;20.67;18.90;;;17.10;99.90;;;;;;5047099;28;20095;-76
2021/05/13 08:31:01;;;;;;;20.75;18.63;;;16.90;99.90;;;;;;5030785;28;20736;-76
2021/05/13 08:33:28;;;;;;;20.58;18.77;;;16.90;99.90;;;;;;5031105;28;20040;-76
2021/05/13 08:35:55;;;;;;;22.33;20.10;;;16.70;99.90;;;;;;5031257;28;20064;-76
2021/05/13 08:38:23;;;;;;;22.75;20.83;;;16.70;99.90;;;;;;5047321;28;20059;-76
2021/05/13 08:40:50;;;;;;;20.85;18.95;;;16.70;99.90;;;;;;5045791;28;20121;-76
2021/05/13 08:43:28;;;;;;;21.10;19.30;;;17.00;99.90;;;;;;5029114;28;20331;-75
2021/05/13 08:45:57;;;;;;;20.38;18.92;;;17.20;99.90;;;;;;5046423;28;20044;-76
2021/05/13 08:48:27;;;;;;;21.27;19.30;;;17.30;99.90;;;;;;5031166;28;20053;-76
2021/05/13 08:50:54;;;;;;;18.70;17.30;;;17.30;99.90;;;;;;5028299;28;20254;-75
2021/05/13 08:53:21;;;;;;;19.48;17.90;;;17.40;99.90;;;;;;5025264;28;20121;-75
2021/05/13 08:55:49;;;;;;;20.65;18.55;;;16.90;99.90;;;;;;5045709;28;20044;-75
2021/05/13 08:58:16;;;;;;;21.88;19.95;;;16.60;99.90;;;;;;5004447;28;20052;-75
2021/05/13 09:00:56;;;;;;;21.02;18.92;;;16.70;99.90;;;;;;5012551;28;20049;-75
2021/05/13 09:03:46;;;;;;;19.27;17.67;;;16.80;99.90;;;;;;5044881;28;20036;-73
2021/05/13 09:06:27;;;;;;;19.25;17.75;;;16.80;99.90;;;;;;5032103;28;20051;-74
2021/05/13 09:08:56;;;;;;;20.08;18.10;;;17.10;99.90;;;;;;5049891;28;20071;-74
2021/05/13 09:11:23;;;;;;;20.05;18.55;;;17.30;99.90;;;;;;5040899;28;20420;-75
2021/05/13 09:13:59;;;;;;;20.13;18.33;;;17.40;99.90;;;;;;5038258;28;20125;-74
2021/05/13 09:16:35;;;;;;;19.38;18.02;;;17.50;99.90;;;;;;5033142;28;20083;-74
2021/05/13 09:19:18;;;;;;;19.30;17.60;;;17.90;99.90;;;;;;5016688;28;20130;-75
2021/05/13 09:21:58;;;;;;;18.02;16.77;;;17.90;99.90;;;;;;5042020;28;20064;-74
2021/05/13 09:24:43;;;;;;;19.15;17.45;;;18.00;99.90;;;;;;5049535;28;20075;-74
2021/05/13 09:27:16;;;;;;;18.85;17.40;;;17.80;99.90;;;;;;5045928;28;20056;-75
2021/05/13 09:29:43;;;;;;;18.77;17.30;;;17.90;99.90;;;;;;5043242;28;20578;-72
2021/05/13 09:32:19;;;;;;;17.50;16.08;;;17.80;99.90;;;;;;5065475;28;20059;-73
2021/05/13 09:34:47;;;;;;;20.55;18.23;;;18.10;99.90;;;;;;5057432;28;20500;-73
2021/05/13 09:37:14;;;;;;;17.40;16.05;;;18.30;99.90;;;;;;5044734;28;20314;-74
2021/05/13 09:39:50;;;;;;;18.55;16.83;;;18.20;99.90;;;;;;5050084;28;20102;-72
2021/05/13 09:42:19;;;;;;;16.92;15.65;;;17.70;99.90;;;;;;5049899;28;20478;-74
2021/05/13 09:44:48;;;;;;;17.70;16.20;;;17.40;99.90;;;;;;5048006;28;20519;-74
2021/05/13 09:47:26;;;;;;;15.38;14.32;;;17.80;99.90;;;;;;5032780;28;20467;-74
2021/05/13 09:50:05;;;;;;;16.02;14.68;;;18.40;99.90;;;;;;5081148;23;20666;-80
2021/05/13 09:52:51;;;;;;;16.55;15.25;;;19.00;99.90;;;;;;4990989;28;20054;-80
2021/05/13 09:55:25;;;;;;;15.07;13.80;;;18.80;99.90;;;;;;4956876;28;20066;-81
2021/05/13 09:57:59;;;;;;;;;;;18.20;99.90;;;;;;4941772;28;20077;-81
2021/05/13 10:00:39;;;;;;;15.63;14.43;;;18.70;99.90;;;;;;4975653;28;19925;-81
2021/05/13 10:03:13;;;;;;;16.23;14.70;;;19.10;99.90;;;;;;4970305;28;20460;-81
2021/05/13 10:05:47;;;;;;;15.83;14.47;;;19.60;99.90;;;;;;4945386;28;20038;-80
2021/05/13 10:08:17;;;;;;;14.23;13.25;;;19.70;99.90;;;;;;4957146;28;20290;-81
2021/05/13 10:10:47;;;;;;;15.52;14.35;;;19.60;99.90;;;;;;4960506;28;20042;-81
2021/05/13 10:13:19;;;;;;;14.75;13.75;;;20.10;99.90;;;;;;4942906;28;20562;-80
2021/05/13 10:15:48;;;;;;;14.60;13.32;;;20.50;99.90;;;;;;4959917;28;20050;-81
2021/05/13 10:18:40;;;;;;;15.45;14.10;;;20.50;99.90;;;;;;4978014;28;20502;-81
2021/05/13 10:21:21;;;;;;;15.73;14.35;;;20.40;99.90;;;;;;4975510;28;20329;-80
2021/05/13 10:23:52;;;;;;;14.88;13.88;;;19.20;99.90;;;;;;4981240;28;20141;-72
2021/05/13 10:26:42;;;;;;;17.15;15.82;;;18.60;99.90;;;;;;4989444;28;20474;-72
2021/05/13 10:29:27;;;;;;;17.17;15.55;;;17.80;99.90;;;;;;5027225;28;20057;-72
2021/05/13 10:32:10;;;;;;;17.77;16.45;;;17.40;99.90;;;;;;4966740;28;20038;-74
2021/05/13 10:34:40;;;;;;;18.05;16.75;;;16.70;99.90;;;;;;4999039;28;20052;-73
2021/05/13 10:37:23;;;;;;;19.73;17.98;;;16.50;99.90;;;;;;4957239;28;20046;-73
2021/05/13 10:40:12;;;;;;;21.33;19.40;;;16.40;99.90;;;;;;4965671;28;20069;-72
2021/05/13 10:42:41;;;;;;;20.38;18.67;;;16.60;99.90;;;;;;4982918;28;20050;-72
2021/05/13 10:45:23;;;;;;;21.80;20.08;;;16.50;99.90;;;;;;4983553;28;20146;-73
2021/05/13 10:48:19;;;;;;;21.08;19.30;;;16.50;99.90;;;;;;4953727;28;20054;-73
2021/05/13 10:50:58;;;;;;;20.30;18.38;;;16.40;99.90;;;;;;4971555;28;20046;-72
2021/05/13 10:53:47;;;;;;;20.75;18.58;;;16.30;99.90;;;;;;4970090;28;20043;-73
2021/05/13 10:56:28;;;;;;;19.38;17.58;;;16.00;99.90;;;;;;4971035;28;20050;-72
2021/05/13 10:59:02;;;;;;;20.42;18.67;;;16.00;99.90;;;;;;4989394;28;20110;-73
2021/05/13 11:01:53;;;;;;;19.70;17.63;;;16.10;99.90;;;;;;4963797;28;20133;-72
2021/05/13 11:04:24;;;;;;;18.73;16.98;;;16.00;99.90;;;;;;4982922;28;20108;-74
2021/05/13 11:06:55;;;;;;;19.13;17.13;;;16.00;99.90;;;;;;4954976;28;20133;-73
2021/05/13 11:09:48;;;;;;;19.92;18.10;;;16.00;99.90;;;;;;4951374;28;20062;-73
2021/05/13 11:12:23;;;;;;;18.83;17.17;;;15.70;99.90;;;;;;4952539;28;20046;-73
2021/05/13 11:15:03;;;;;;;17.65;15.90;;;15.70;99.90;;;;;;4987349;28;20545;-73
2021/05/13 11:20:33;;;;;;;17.65;16.05;;;16.20;99.90;;;;;;4988696;28;20053;-72
2021/05/13 11:23:19;;;;;;;17.35;15.63;;;16.00;99.90;;;;;;4946667;28;20073;-73
2021/05/13 11:25:58;;;;;;;16.33;14.95;;;15.80;99.90;;;;;;4985575;28;20119;-73
2021/05/13 11:28:43;;;;;;;18.58;16.83;;;16.10;99.90;;;;;;4967101;28;20631;-73
2021/05/13 11:31:14;;;;;;;17.50;15.88;;;16.30;99.90;;;;;;4981419;28;20038;-73
2021/05/13 11:33:46;;;;;;;16.05;14.73;;;16.30;99.90;;;;;;4977626;28;20062;-73
2021/05/13 11:36:23;;;;;;;16.30;14.90;;;16.30;99.90;;;;;;4967955;28;20786;-72
2021/05/13 11:38:55;;;;;;;15.43;14.23;;;16.30;99.90;;;;;;4938196;28;20274;-72
2021/05/13 11:41:23;;;;;;;18.02;16.63;;;16.20;99.90;;;;;;4984900;28;20479;-72
2021/05/13 11:43:51;;;;;;;16.15;14.52;;;15.80;99.90;;;;;;5001802;28;20093;-72
2021/05/13 11:46:20;;;;;;;16.25;14.85;;;15.90;99.90;;;;;;4991860;28;20046;-73
2021/05/13 11:48:50;;;;;;;15.32;13.90;;;15.90;99.90;;;;;;4971744;28;20283;-73
2021/05/13 11:51:20;;;;;;;16.55;15.05;;;15.70;99.90;;;;;;4969667;28;20050;-73
2021/05/13 11:53:49;;;;;;;16.92;15.15;;;15.80;99.90;;;;;;4985955;28;20422;-73
2021/05/13 11:56:17;;;;;;;15.88;14.45;;;16.10;99.90;;;;;;4984631;28;20069;-73
2021/05/13 11:58:45;;;;;;;15.88;14.20;;;16.30;99.90;;;;;;4983564;28;20429;-73
2021/05/13 12:01:29;;;;;;;16.42;15.02;;;16.50;99.90;;;;;;4980883;28;20100;-72
2021/05/13 12:04:02;;;;;;;16.65;15.38;;;16.60;99.90;;;;;;4989358;28;20248;-74
2021/05/13 12:06:50;;;;;;;16.48;14.88;;;16.60;99.90;;;;;;4960889;28;20133;-75
2021/05/13 12:09:21;;;;;;;16.45;15.05;;;16.60;99.90;;;;;;4969876;28;20132;-76
2021/05/13 12:11:50;;;;;;;16.17;14.73;;;16.70;99.90;;;;;;4963420;28;20069;-74
2021/05/13 12:14:28;;;;;;;14.57;13.30;;;16.80;99.90;;;;;;4993740;28;20057;-74
2021/05/13 12:17:04;;;;;;;15.40;14.10;;;16.80;99.90;;;;;;4968320;28;20082;-74
2021/05/13 12:19:33;;;;;;;15.73;14.50;;;16.70;99.90;;;;;;4965144;28;20061;-76
2021/05/13 12:22:03;;;;;;;13.98;12.57;;;16.70;99.90;;;;;;4967322;28;20060;-76
2021/05/13 12:24:34;;;;;;;14.38;13.07;;;16.70;99.90;;;;;;4984431;28;20057;-74
2021/05/13 12:27:01;;;;;;;14.43;13.15;;;16.70;99.90;;;;;;4984202;28;20058;-75
2021/05/13 12:29:29;;;;;;;13.27;12.05;;;16.50;99.90;;;;;;4952317;28;20467;-74
2021/05/13 12:31:56;;;;;;;12.45;11.45;;;16.40;99.90;;;;;;4977517;28;20636;-73
2021/05/13 12:34:39;;;;;;;14.32;12.90;;;16.50;99.90;;;;;;4998163;28;20295;-75
2021/05/13 12:37:09;;;;;;;14.57;13.20;;;16.50;99.90;;;;;;4982068;28;20070;-73
2021/05/13 12:39:39;;;;;;;14.93;13.57;;;16.30;99.90;;;;;;4941181;28;20338;-74
2021/05/13 12:42:22;;;;;;;14.73;13.57;;;16.10;99.90;;;;;;4972112;28;20578;-74
2021/05/13 12:44:49;;;;;;;14.15;13.15;;;16.10;99.90;;;;;;4989565;28;20054;-74
2021/05/13 12:47:24;;;;;;;14.60;13.20;;;16.20;99.90;;;;;;4982403;28;20057;-74
2021/05/13 12:50:03;;;;;;;14.35;12.95;;;16.10;99.90;;;;;;5004590;28;20105;-75
2021/05/13 12:52:30;;;;;;;13.95;12.60;;;16.00;99.90;;;;;;4955213;28;20072;-74
2021/05/13 12:55:15;;;;;;;14.82;13.43;;;16.10;99.90;;;;;;4971445;28;20050;-75
2021/05/13 12:57:45;;;;;;;13.25;12.20;;;15.80;99.90;;;;;;4986671;28;20144;-74
2021/05/13 13:00:14;;;;;;;14.27;13.02;;;15.70;99.90;;;;;;4987462;28;20550;-73